sensor_id;sensor_type;location;lat;lon;timestamp;P1;durP1;ratioP1;P2;durP2;ratioP2
1523;SDS011;755;53.658;10.118;2022-08-07T00:00:55;16.60;;;8.57;;
1523;SDS011;755;53.658;10.118;2022-08-07T00:10:57;18.45;;;9.82;;
1523;SDS011;755;53.658;10.118;2022-08-07T00:21:01;22.88;;;9.35;;
1523;SDS011;755;53.658;10.118;2022-08-07T00:31:07;13.30;;;8.43;;
1523;SDS011;755;53.658;10.118;2022-08-07T00:41:12;17.92;;;8.50;;
1523;SDS011;755;53.658;10.118;2022-08-07T00:51:14;15.98;;;9.13;;
1523;SDS011;755;53.658;10.118;2022-08-07T01:01:18;14.10;;;8.05;;
1523;SDS011;755;53.658;10.118;2022-08-07T01:11:21;16.15;;;8.20;;
1523;SDS011;755;53.658;10.118;2022-08-07T01:21:25;16.95;;;8.88;;
1523;SDS011;755;53.658;10.118;2022-08-07T01:31:28;13.95;;;8.23;;
1523;SDS011;755;53.658;10.118;2022-08-07T01:41:33;13.43;;;8.30;;
1523;SDS011;755;53.658;10.118;2022-08-07T01:51:35;16.23;;;8.48;;
1523;SDS011;755;53.658;10.118;2022-08-07T02:01:41;11.95;;;7.80;;
1523;SDS011;755;53.658;10.118;2022-08-07T02:11:49;14.52;;;8.32;;
1523;SDS011;755;53.658;10.118;2022-08-07T02:21:53;12.85;;;7.75;;
1523;SDS011;755;53.658;10.118;2022-08-07T02:31:56;14.32;;;7.32;;
1523;SDS011;755;53.658;10.118;2022-08-07T02:42:01;14.05;;;8.32;;
1523;SDS011;755;53.658;10.118;2022-08-07T02:52:04;12.00;;;7.35;;
1523;SDS011;755;53.658;10.118;2022-08-07T03:02:13;12.57;;;7.65;;
1523;SDS011;755;53.658;10.118;2022-08-07T03:12:16;12.38;;;7.50;;
1523;SDS011;755;53.658;10.118;2022-08-07T03:22:21;15.85;;;7.75;;
1523;SDS011;755;53.658;10.118;2022-08-07T03:32:26;16.10;;;7.18;;
1523;SDS011;755;53.658;10.118;2022-08-07T03:42:35;12.02;;;7.85;;
1523;SDS011;755;53.658;10.118;2022-08-07T03:52:39;12.90;;;7.55;;
1523;SDS011;755;53.658;10.118;2022-08-07T04:02:44;13.40;;;7.32;;
1523;SDS011;755;53.658;10.118;2022-08-07T04:12:47;11.55;;;7.57;;
1523;SDS011;755;53.658;10.118;2022-08-07T04:22:51;15.45;;;7.45;;
1523;SDS011;755;53.658;10.118;2022-08-07T04:32:54;13.18;;;7.13;;
1523;SDS011;755;53.658;10.118;2022-08-07T04:42:58;13.50;;;7.55;;
1523;SDS011;755;53.658;10.118;2022-08-07T04:53:04;12.13;;;7.03;;
1523;SDS011;755;53.658;10.118;2022-08-07T05:03:16;11.95;;;7.47;;
1523;SDS011;755;53.658;10.118;2022-08-07T05:13:24;11.75;;;7.18;;
1523;SDS011;755;53.658;10.118;2022-08-07T05:23:38;18.40;;;9.07;;
1523;SDS011;755;53.658;10.118;2022-08-07T05:33:42;19.30;;;11.27;;
1523;SDS011;755;53.658;10.118;2022-08-07T05:43:47;25.15;;;12.98;;
1523;SDS011;755;53.658;10.118;2022-08-07T05:53:50;26.58;;;13.63;;
1523;SDS011;755;53.658;10.118;2022-08-07T06:03:54;31.67;;;14.98;;
1523;SDS011;755;53.658;10.118;2022-08-07T06:13:58;28.52;;;14.38;;
1523;SDS011;755;53.658;10.118;2022-08-07T06:24:01;23.08;;;12.75;;
1523;SDS011;755;53.658;10.118;2022-08-07T06:34:04;31.65;;;12.68;;
1523;SDS011;755;53.658;10.118;2022-08-07T06:44:08;21.67;;;10.00;;
1523;SDS011;755;53.658;10.118;2022-08-07T06:54:13;17.38;;;8.13;;
1523;SDS011;755;53.658;10.118;2022-08-07T07:04:20;16.45;;;7.63;;
1523;SDS011;755;53.658;10.118;2022-08-07T07:14:22;15.27;;;7.18;;
1523;SDS011;755;53.658;10.118;2022-08-07T07:24:27;13.52;;;6.43;;
1523;SDS011;755;53.658;10.118;2022-08-07T07:34:29;13.93;;;6.53;;
1523;SDS011;755;53.658;10.118;2022-08-07T07:44:34;10.23;;;5.05;;
1523;SDS011;755;53.658;10.118;2022-08-07T07:54:39;11.98;;;5.55;;
1523;SDS011;755;53.658;10.118;2022-08-07T08:04:44;7.97;;;4.45;;
1523;SDS011;755;53.658;10.118;2022-08-07T08:14:46;9.80;;;4.88;;
1523;SDS011;755;53.658;10.118;2022-08-07T08:24:51;8.23;;;2.95;;
1523;SDS011;755;53.658;10.118;2022-08-07T08:35:14;5.97;;;3.08;;
1523;SDS011;755;53.658;10.118;2022-08-07T08:45:23;9.40;;;3.45;;
1523;SDS011;755;53.658;10.118;2022-08-07T08:55:35;5.00;;;3.08;;
1523;SDS011;755;53.658;10.118;2022-08-07T09:05:45;4.03;;;2.95;;
1523;SDS011;755;53.658;10.118;2022-08-07T09:15:56;5.88;;;2.92;;
1523;SDS011;755;53.658;10.118;2022-08-07T09:26:09;6.43;;;3.35;;
1523;SDS011;755;53.658;10.118;2022-08-07T09:36:21;5.82;;;3.72;;
1523;SDS011;755;53.658;10.118;2022-08-07T09:46:31;5.07;;;3.42;;
1523;SDS011;755;53.658;10.118;2022-08-07T09:56:49;4.10;;;3.30;;
1523;SDS011;755;53.658;10.118;2022-08-07T10:07:29;7.40;;;3.30;;
1523;SDS011;755;53.658;10.118;2022-08-07T10:17:58;4.68;;;3.45;;
1523;SDS011;755;53.658;10.118;2022-08-07T10:28:16;3.90;;;2.50;;
1523;SDS011;755;53.658;10.118;2022-08-07T10:38:36;5.45;;;3.53;;
1523;SDS011;755;53.658;10.118;2022-08-07T10:48:58;8.65;;;4.13;;
1523;SDS011;755;53.658;10.118;2022-08-07T10:59:11;4.75;;;2.95;;
1523;SDS011;755;53.658;10.118;2022-08-07T11:09:24;4.40;;;2.60;;
1523;SDS011;755;53.658;10.118;2022-08-07T11:19:35;4.32;;;2.97;;
1523;SDS011;755;53.658;10.118;2022-08-07T11:29:42;8.68;;;2.65;;
1523;SDS011;755;53.658;10.118;2022-08-07T11:39:53;3.95;;;2.78;;
1523;SDS011;755;53.658;10.118;2022-08-07T11:50:10;4.07;;;2.63;;
1523;SDS011;755;53.658;10.118;2022-08-07T12:00:27;6.35;;;2.67;;
1523;SDS011;755;53.658;10.118;2022-08-07T12:10:36;2.65;;;2.20;;
1523;SDS011;755;53.658;10.118;2022-08-07T12:20:43;15.27;;;8.57;;
1523;SDS011;755;53.658;10.118;2022-08-07T12:30:51;3.22;;;2.60;;
1523;SDS011;755;53.658;10.118;2022-08-07T12:40:58;3.85;;;2.35;;
1523;SDS011;755;53.658;10.118;2022-08-07T12:51:09;4.60;;;2.70;;
1523;SDS011;755;53.658;10.118;2022-08-07T13:01:17;4.20;;;2.63;;
1523;SDS011;755;53.658;10.118;2022-08-07T13:11:36;3.22;;;2.05;;
1523;SDS011;755;53.658;10.118;2022-08-07T13:21:49;4.45;;;2.70;;
1523;SDS011;755;53.658;10.118;2022-08-07T13:31:58;6.13;;;2.65;;
1523;SDS011;755;53.658;10.118;2022-08-07T13:42:02;5.57;;;2.57;;
1523;SDS011;755;53.658;10.118;2022-08-07T13:52:10;8.57;;;3.57;;
1523;SDS011;755;53.658;10.118;2022-08-07T14:02:18;3.47;;;2.53;;
1523;SDS011;755;53.658;10.118;2022-08-07T14:12:26;4.13;;;2.85;;
1523;SDS011;755;53.658;10.118;2022-08-07T14:22:38;3.92;;;2.72;;
1523;SDS011;755;53.658;10.118;2022-08-07T14:56:01;4.43;;;2.70;;
1523;SDS011;755;53.658;10.118;2022-08-07T15:06:07;5.80;;;2.58;;
1523;SDS011;755;53.658;10.118;2022-08-07T15:16:18;4.43;;;2.90;;
1523;SDS011;755;53.658;10.118;2022-08-07T15:26:36;3.25;;;2.65;;
1523;SDS011;755;53.658;10.118;2022-08-07T15:36:44;4.63;;;2.60;;
1523;SDS011;755;53.658;10.118;2022-08-07T15:46:52;4.90;;;2.60;;
1523;SDS011;755;53.658;10.118;2022-08-07T15:56:58;3.40;;;2.58;;
1523;SDS011;755;53.658;10.118;2022-08-07T16:07:03;3.38;;;2.50;;
1523;SDS011;755;53.658;10.118;2022-08-07T16:17:13;2.97;;;2.13;;
1523;SDS011;755;53.658;10.118;2022-08-07T16:27:30;2.70;;;2.15;;
1523;SDS011;755;53.658;10.118;2022-08-07T16:37:40;4.43;;;2.60;;
1523;SDS011;755;53.658;10.118;2022-08-07T16:58:38;3.03;;;2.30;;
1523;SDS011;755;53.658;10.118;2022-08-07T17:08:55;2.65;;;1.90;;
1523;SDS011;755;53.658;10.118;2022-08-07T17:19:06;6.53;;;2.88;;
1523;SDS011;755;53.658;10.118;2022-08-07T17:29:17;4.82;;;2.20;;
1523;SDS011;755;53.658;10.118;2022-08-07T17:39:24;8.15;;;2.90;;
1523;SDS011;755;53.658;10.118;2022-08-07T17:49:41;3.85;;;2.22;;
1523;SDS011;755;53.658;10.118;2022-08-07T17:59:53;2.72;;;2.25;;
1523;SDS011;755;53.658;10.118;2022-08-07T18:10:12;5.47;;;2.70;;
1523;SDS011;755;53.658;10.118;2022-08-07T18:20:30;4.95;;;2.60;;
1523;SDS011;755;53.658;10.118;2022-08-07T18:30:45;5.28;;;2.40;;
1523;SDS011;755;53.658;10.118;2022-08-07T18:41:03;4.70;;;2.83;;
1523;SDS011;755;53.658;10.118;2022-08-07T18:51:28;4.50;;;2.40;;
1523;SDS011;755;53.658;10.118;2022-08-07T19:01:40;3.20;;;2.15;;
1523;SDS011;755;53.658;10.118;2022-08-07T19:12:01;4.93;;;2.23;;
1523;SDS011;755;53.658;10.118;2022-08-07T19:22:19;5.47;;;2.60;;
1523;SDS011;755;53.658;10.118;2022-08-07T19:32:29;8.40;;;3.63;;
1523;SDS011;755;53.658;10.118;2022-08-07T19:42:39;12.75;;;3.63;;
1523;SDS011;755;53.658;10.118;2022-08-07T19:52:46;5.88;;;2.92;;
1523;SDS011;755;53.658;10.118;2022-08-07T20:02:54;5.25;;;3.88;;
1523;SDS011;755;53.658;10.118;2022-08-07T20:13:13;6.00;;;3.60;;
1523;SDS011;755;53.658;10.118;2022-08-07T20:23:30;5.57;;;3.30;;
1523;SDS011;755;53.658;10.118;2022-08-07T20:33:45;6.50;;;4.05;;
1523;SDS011;755;53.658;10.118;2022-08-07T20:43:57;7.57;;;4.30;;
1523;SDS011;755;53.658;10.118;2022-08-07T21:04:09;6.32;;;3.33;;
1523;SDS011;755;53.658;10.118;2022-08-07T21:14:17;7.80;;;3.75;;
1523;SDS011;755;53.658;10.118;2022-08-07T21:24:25;6.80;;;4.10;;
1523;SDS011;755;53.658;10.118;2022-08-07T21:34:36;6.28;;;4.18;;
1523;SDS011;755;53.658;10.118;2022-08-07T21:44:45;7.40;;;4.00;;
1523;SDS011;755;53.658;10.118;2022-08-07T21:55:04;8.93;;;4.72;;
1523;SDS011;755;53.658;10.118;2022-08-07T22:05:16;7.60;;;4.32;;
1523;SDS011;755;53.658;10.118;2022-08-07T22:15:27;6.95;;;4.55;;
1523;SDS011;755;53.658;10.118;2022-08-07T22:25:42;8.10;;;4.95;;
1523;SDS011;755;53.658;10.118;2022-08-07T22:36:08;5.13;;;4.25;;
1523;SDS011;755;53.658;10.118;2022-08-07T22:46:26;7.88;;;4.80;;
1523;SDS011;755;53.658;10.118;2022-08-07T22:56:46;7.57;;;4.45;;
1523;SDS011;755;53.658;10.118;2022-08-07T23:07:04;8.05;;;4.50;;
1523;SDS011;755;53.658;10.118;2022-08-07T23:17:40;5.50;;;4.10;;
1523;SDS011;755;53.658;10.118;2022-08-07T23:28:07;8.98;;;4.55;;
1523;SDS011;755;53.658;10.118;2022-08-07T23:38:39;8.88;;;4.75;;
1523;SDS011;755;53.658;10.118;2022-08-07T23:49:22;8.55;;;5.32;;
1523;SDS011;755;53.658;10.118;2022-08-07T23:59:41;9.88;;;4.85;;
